Weather at Orlando International Airport

Public forecast

Using degrees Fahrenheit for public forecast. Weather courtesy of forecast.io.

Current aviation weather report (METAR) for Orlando International Airport

Retrieved 2021/05/11 17:53 UTC (59 minutes ago):

KMCO 111753Z 18007KT 10SM SCT050 SCT150 BKN280 32/18 A3005 RMK AO2 SLP175 CB DSNT NW T03220183 10322 20244 58015

Aviation forecast (TAF) for Orlando International Airport

Retrieved 2021/05/11 18:39 UTC (13 minutes ago):

TAF KMCO 111737Z 1118/1224 23005KT P6SM VCSH FEW040 SCT250 FM111830 10010KT P6SM VCTS SCT050CB BKN080 TEMPO 1119/1123 VRB12G20KT 3SM TSRA BKN040CB FM120000 VRB04KT P6SM FEW040 SCT080 BKN250 FM121400 24008KT P6SM SCT040 BKN200 FM121830 25010KT P6SM VCTS SCT050CB BKN080